createdAt,value
2018-05-08T00:01:56.934Z,97934.80
2018-05-08T00:04:23.176Z,97942.31
2018-05-08T00:06:49.435Z,97934.30
2018-05-08T00:09:15.722Z,97939.52
2018-05-08T00:11:41.966Z,97932.26
2018-05-08T00:14:08.194Z,97930.19
2018-05-08T00:16:34.446Z,97924.36
2018-05-08T00:19:00.675Z,97930.38
2018-05-08T00:21:26.926Z,97928.22
2018-05-08T00:23:53.174Z,97927.98
2018-05-08T00:26:19.414Z,97922.26
2018-05-08T00:28:45.630Z,97926.48
2018-05-08T00:31:11.910Z,97924.33
2018-05-08T00:33:38.133Z,97927.53
2018-05-08T00:36:04.681Z,97919.77
2018-05-08T00:38:30.938Z,97918.72
2018-05-08T00:40:57.149Z,97922.03
2018-05-08T00:43:23.385Z,97919.99
2018-05-08T00:45:49.607Z,97922.16
2018-05-08T00:48:15.869Z,97922.16
2018-05-08T00:50:42.098Z,97915.41
2018-05-08T00:53:08.350Z,97918.82
2018-05-08T00:55:34.562Z,97921.08
2018-05-08T00:58:00.820Z,97919.08
2018-05-08T01:00:27.061Z,97919.71
2018-05-08T01:02:53.290Z,97913.00
2018-05-08T01:05:19.534Z,97913.76
2018-05-08T01:07:45.750Z,97914.04
2018-05-08T01:10:11.993Z,97913.86
2018-05-08T01:12:38.253Z,97904.98
2018-05-08T01:15:04.530Z,97908.31
2018-05-08T01:17:30.755Z,97905.27
2018-05-08T01:19:57.006Z,97907.44
2018-05-08T01:22:23.229Z,97894.51
2018-05-08T01:24:49.488Z,97898.06
2018-05-08T01:27:15.732Z,97897.94
2018-05-08T01:29:41.969Z,97893.49
2018-05-08T01:32:08.214Z,97892.48
2018-05-08T01:34:34.430Z,97894.54
2018-05-08T01:37:00.679Z,97894.68
2018-05-08T01:39:26.925Z,97900.14
2018-05-08T01:41:53.209Z,97898.23
2018-05-08T01:44:19.466Z,97897.73
2018-05-08T01:46:45.704Z,97894.70
2018-05-08T01:49:18.876Z,97890.49
2018-05-08T01:51:45.114Z,97888.61
2018-05-08T01:54:11.388Z,97883.90
2018-05-08T01:56:37.607Z,97886.33
2018-05-08T01:59:03.850Z,97881.11
2018-05-08T02:01:30.074Z,97884.41
2018-05-08T02:03:56.325Z,97881.13
2018-05-08T02:06:22.550Z,97877.69
2018-05-08T02:08:48.761Z,97873.86
2018-05-08T02:11:15.080Z,97871.96
2018-05-08T02:13:41.302Z,97864.99
2018-05-08T02:16:07.538Z,97870.02
2018-05-08T02:18:33.843Z,97872.42
2018-05-08T02:21:00.085Z,97868.00
2018-05-08T02:23:26.330Z,97868.50
2018-05-08T02:25:52.692Z,97870.89
2018-05-08T02:28:18.878Z,97868.34
2018-05-08T02:30:45.094Z,97860.48
2018-05-08T02:33:11.334Z,97860.58
2018-05-08T02:35:37.554Z,97862.98
2018-05-08T02:38:03.802Z,97857.14
2018-05-08T02:40:30.018Z,97849.52
2018-05-08T02:42:56.259Z,97845.84
2018-05-08T02:45:22.478Z,97847.74
2018-05-08T02:47:48.730Z,97855.45
2018-05-08T02:50:14.966Z,97848.08
2018-05-08T02:52:41.221Z,97846.28
2018-05-08T02:55:14.535Z,97843.06
2018-05-08T02:57:40.758Z,97840.28
2018-05-08T03:00:07.007Z,97839.38
2018-05-08T03:02:33.262Z,97846.99
2018-05-08T03:04:59.507Z,97847.08
2018-05-08T03:07:25.727Z,97843.93
2018-05-08T03:09:51.982Z,97843.03
2018-05-08T03:12:18.278Z,97846.45
2018-05-08T03:14:44.528Z,97843.13
2018-05-08T03:17:10.781Z,97839.62
2018-05-08T03:19:36.992Z,97838.48
2018-05-08T03:22:03.261Z,97846.08
2018-05-08T03:24:29.487Z,97842.50
2018-05-08T03:26:55.739Z,97838.95
2018-05-08T03:29:21.961Z,97839.08
2018-05-08T03:31:48.209Z,97841.88
2018-05-08T03:34:14.429Z,97840.97
2018-05-08T03:36:40.655Z,97845.39
2018-05-08T03:39:06.898Z,97836.48
2018-05-08T03:41:33.112Z,97831.30
2018-05-08T03:43:59.354Z,97835.83
2018-05-08T03:46:25.575Z,97837.95
2018-05-08T03:48:51.811Z,97828.58
2018-05-08T03:51:18.034Z,97835.03
2018-05-08T03:53:44.283Z,97831.06
2018-05-08T03:56:10.526Z,97830.09
2018-05-08T03:58:36.742Z,97830.33
2018-05-08T04:14:44.558Z,97825.49
2018-05-08T04:17:10.811Z,97824.73
2018-05-08T04:19:37.077Z,97827.90
2018-05-08T04:22:03.318Z,97824.10
2018-05-08T04:24:29.530Z,97826.50
2018-05-08T04:26:55.770Z,97815.63
2018-05-08T04:29:21.978Z,97814.52
2018-05-08T04:31:48.190Z,97813.67
2018-05-08T04:34:14.417Z,97815.94
2018-05-08T04:36:40.648Z,97818.23
2018-05-08T04:39:06.895Z,97821.64
2018-05-08T04:41:33.107Z,97829.27
2018-05-08T04:43:59.335Z,97823.45
2018-05-08T04:46:25.557Z,97815.73
2018-05-08T04:48:51.789Z,97817.08
2018-05-08T04:51:18.008Z,97818.96
2018-05-08T04:53:44.222Z,97815.32
2018-05-08T04:56:10.459Z,97813.79
2018-05-08T04:58:36.679Z,97812.83
2018-05-08T05:01:02.927Z,97812.60
2018-05-08T05:03:29.138Z,97817.69
2018-05-08T05:05:55.371Z,97821.23
2018-05-08T05:08:21.585Z,97814.91
2018-05-08T05:10:47.931Z,97811.77
2018-05-08T05:13:14.177Z,97804.20
2018-05-08T05:15:40.473Z,97819.67
2018-05-08T05:18:06.706Z,97812.47
2018-05-08T05:20:32.913Z,97816.27
2018-05-08T05:22:59.167Z,97820.09
2018-05-08T05:25:25.394Z,97828.10
2018-05-08T05:27:51.630Z,97818.98
2018-05-08T05:30:17.855Z,97820.13
2018-05-08T05:32:44.090Z,97821.67
2018-05-08T05:35:10.306Z,97816.22
2018-05-08T05:37:36.547Z,97816.45
2018-05-08T05:40:02.813Z,97820.61
2018-05-08T05:42:29.041Z,97821.44
2018-05-08T05:44:55.270Z,97815.91
2018-05-08T05:47:21.486Z,97814.73
2018-05-08T05:49:47.718Z,97813.75
2018-05-08T05:52:13.930Z,97823.07
2018-05-08T05:54:40.173Z,97813.77
2018-05-08T05:57:06.387Z,97808.33
2018-05-08T05:59:32.647Z,97807.17
2018-05-08T06:01:58.854Z,97795.68
2018-05-08T06:04:25.087Z,97809.09
2018-05-08T06:06:51.330Z,97800.78
2018-05-08T06:09:17.538Z,97796.96
2018-05-08T06:11:43.771Z,97799.38
2018-05-08T06:14:10.007Z,97798.11
2018-05-08T06:16:36.282Z,97792.76
2018-05-08T06:19:02.496Z,97795.35
2018-05-08T06:21:28.740Z,97790.45
2018-05-08T06:23:54.958Z,97792.23
2018-05-08T06:26:21.169Z,97794.36
2018-05-08T06:28:47.402Z,97792.28
2018-05-08T06:31:13.635Z,97795.47
2018-05-08T06:33:39.937Z,97792.61
2018-05-08T06:36:06.169Z,97797.02
2018-05-08T06:38:32.418Z,97797.15
2018-05-08T06:40:58.636Z,97800.70
2018-05-08T06:43:24.886Z,97796.76
2018-05-08T06:45:51.114Z,97795.73
2018-05-08T06:48:17.347Z,97795.23
2018-05-08T06:50:43.598Z,97801.20
2018-05-08T06:53:09.819Z,97799.86
2018-05-08T06:55:36.049Z,97797.22
2018-05-08T06:58:02.271Z,97796.81
2018-05-08T07:00:28.512Z,97799.28
2018-05-08T07:02:54.731Z,97794.86
2018-05-08T07:05:20.998Z,97785.30
2018-05-08T07:07:47.214Z,97784.35
2018-05-08T07:10:13.462Z,97782.48
2018-05-08T07:12:39.718Z,97788.59
2018-05-08T07:15:05.958Z,97782.87
2018-05-08T07:17:32.207Z,97782.11
2018-05-08T07:19:58.442Z,97780.68
2018-05-08T07:22:24.695Z,97773.58
2018-05-08T07:24:50.933Z,97774.65
2018-05-08T07:27:17.187Z,97783.11
2018-05-08T07:29:43.402Z,97776.81
2018-05-08T07:32:09.627Z,97765.13
2018-05-08T07:34:35.878Z,97777.68
2018-05-08T07:37:02.103Z,97773.17
2018-05-08T07:39:28.351Z,97769.39
2018-05-08T07:41:54.587Z,97767.98
2018-05-08T07:44:20.822Z,97773.70
2018-05-08T07:46:47.062Z,97759.23
2018-05-08T07:49:13.301Z,97769.12
2018-05-08T07:51:39.577Z,97774.13
2018-05-08T07:54:05.781Z,97775.44
2018-05-08T07:56:32.023Z,97768.36
2018-05-08T07:58:58.226Z,97767.42
2018-05-08T08:01:24.476Z,97766.56
2018-05-08T08:03:50.686Z,97772.41
2018-05-08T08:06:16.935Z,97769.22
2018-05-08T08:08:43.170Z,97773.84
2018-05-08T08:11:09.419Z,97766.47
2018-05-08T08:13:35.634Z,97768.67
2018-05-08T08:16:01.845Z,97760.55
2018-05-08T08:18:28.163Z,97752.61
2018-05-08T08:20:54.318Z,97764.11
2018-05-08T08:23:20.546Z,97762.85
2018-05-08T08:25:46.773Z,97753.64
2018-05-08T08:28:13.006Z,97749.66
2018-05-08T08:30:39.223Z,97749.84
2018-05-08T08:33:05.473Z,97749.41
2018-05-08T08:35:31.691Z,97751.92
2018-05-08T08:37:57.914Z,97749.78
2018-05-08T08:40:24.179Z,97736.54
2018-05-08T08:42:50.395Z,97739.29
2018-05-08T08:45:16.631Z,97741.41
2018-05-08T08:47:42.932Z,97740.53
2018-05-08T08:50:09.119Z,97736.07
2018-05-08T08:52:35.358Z,97738.13
2018-05-08T08:55:01.607Z,97732.59
2018-05-08T08:57:27.830Z,97736.43
2018-05-08T08:59:54.085Z,97736.94
2018-05-08T09:02:20.317Z,97734.16
2018-05-08T09:04:46.538Z,97734.92
2018-05-08T09:07:12.798Z,97727.92
2018-05-08T09:09:39.031Z,97718.11
2018-05-08T09:12:05.290Z,97726.70
2018-05-08T09:14:31.565Z,97716.06
2018-05-08T09:16:57.802Z,97712.52
2018-05-08T09:19:24.029Z,97712.73
2018-05-08T09:21:50.257Z,97706.30
2018-05-08T09:24:16.478Z,97712.92
2018-05-08T09:26:42.739Z,97709.89
2018-05-08T09:29:08.958Z,97697.75
2018-05-08T09:31:35.191Z,97707.58
2018-05-08T09:34:01.434Z,97693.95
2018-05-08T09:36:27.654Z,97696.67
2018-05-08T09:38:53.905Z,97701.53
2018-05-08T09:41:20.109Z,97689.75
2018-05-08T09:43:46.350Z,97692.03
2018-05-08T09:46:12.570Z,97690.55
2018-05-08T09:48:38.809Z,97683.28
2018-05-08T09:51:05.047Z,97685.66
2018-05-08T09:53:31.282Z,97677.08
2018-05-08T09:55:57.502Z,97678.70
2018-05-08T09:58:23.755Z,97673.96
2018-05-08T10:00:49.979Z,97674.14
2018-05-08T10:03:16.221Z,97665.05
2018-05-08T10:05:42.458Z,97662.42
2018-05-08T10:08:08.674Z,97659.13
2018-05-08T10:10:34.918Z,97660.58
2018-05-08T10:13:01.129Z,97656.62
2018-05-08T10:15:27.381Z,97646.59
2018-05-08T10:17:53.595Z,97651.20
2018-05-08T10:20:19.834Z,97644.98
2018-05-08T10:22:46.047Z,97650.94
2018-05-08T10:25:12.282Z,97649.97
2018-05-08T10:27:38.522Z,97641.59
2018-05-08T10:30:04.764Z,97639.97
2018-05-08T10:32:31.003Z,97626.70
2018-05-08T10:34:57.299Z,97636.44
2018-05-08T10:37:23.534Z,97626.41
2018-05-08T10:39:49.809Z,97614.63
2018-05-08T10:42:16.121Z,97622.72
2018-05-08T10:44:42.341Z,97619.91
2018-05-08T10:47:08.562Z,97620.53
2018-05-08T10:49:34.806Z,97621.52
2018-05-08T10:52:01.014Z,97610.50
2018-05-08T10:54:27.251Z,97605.17
2018-05-08T10:56:53.467Z,97595.91
2018-05-08T10:59:19.736Z,97604.87
2018-05-08T11:01:46.041Z,97596.47
2018-05-08T11:04:12.213Z,97601.11
2018-05-08T11:06:38.418Z,97590.72
2018-05-08T11:09:04.681Z,97585.78
2018-05-08T11:11:30.950Z,97592.09
2018-05-08T11:13:57.158Z,97585.57
2018-05-08T11:16:23.434Z,97580.67
2018-05-08T11:18:49.678Z,97574.68
2018-05-08T11:21:15.942Z,97570.95
2018-05-08T11:23:42.163Z,97567.41
2018-05-08T11:26:08.382Z,97574.72
2018-05-08T11:28:34.641Z,97564.20
2018-05-08T11:31:00.882Z,97564.66
2018-05-08T11:33:27.166Z,97559.18
2018-05-08T11:35:53.398Z,97566.55
2018-05-08T11:38:19.642Z,97562.54
2018-05-08T11:40:45.863Z,97560.44
2018-05-08T11:43:12.119Z,97556.12
2018-05-08T11:45:38.413Z,97552.36
2018-05-08T11:48:04.630Z,97545.90
2018-05-08T11:50:30.890Z,97534.07
2018-05-08T11:52:57.105Z,97542.18
2018-05-08T11:55:23.333Z,97538.42
2018-05-08T11:57:49.579Z,97531.94
2018-05-08T12:00:15.810Z,97516.30
2018-05-08T12:02:42.082Z,97526.80
2018-05-08T12:05:08.290Z,97523.22
2018-05-08T12:07:34.501Z,97519.02
2018-05-08T12:10:00.720Z,97508.60
2018-05-08T12:12:26.962Z,97499.47
2018-05-08T12:14:53.215Z,97504.71
2018-05-08T12:17:19.451Z,97496.63
2018-05-08T12:19:45.673Z,97507.32
2018-05-08T12:22:11.901Z,97486.34
2018-05-08T12:24:38.117Z,97491.38
2018-05-08T12:27:04.367Z,97489.66
2018-05-08T12:29:30.591Z,97481.75
2018-05-08T12:31:56.859Z,97484.73
2018-05-08T12:34:23.080Z,97477.27
2018-05-08T12:36:49.294Z,97478.48
2018-05-08T12:39:15.531Z,97473.31
2018-05-08T12:41:41.758Z,97475.10
2018-05-08T12:44:08.007Z,97471.81
2018-05-08T12:46:34.234Z,97459.21
2018-05-08T12:49:00.474Z,97472.78
2018-05-08T12:51:26.698Z,97465.28
2018-05-08T12:53:52.950Z,97454.14
2018-05-08T12:56:19.190Z,97461.19
2018-05-08T12:58:45.455Z,97463.94
2018-05-08T13:01:11.686Z,97455.95
2018-05-08T13:03:37.894Z,97441.34
2018-05-08T13:06:04.137Z,97447.84
2018-05-08T13:08:30.411Z,97450.44
2018-05-08T13:10:56.697Z,97431.70
2018-05-08T13:13:22.950Z,97441.99
2018-05-08T13:15:49.187Z,97433.89
2018-05-08T13:18:15.499Z,97436.04
2018-05-08T13:20:41.691Z,97441.30
2018-05-08T13:23:07.931Z,97446.59
2018-05-08T13:25:34.162Z,97442.34
2018-05-08T13:28:00.414Z,97431.31
2018-05-08T13:30:26.647Z,97426.73
2018-05-08T13:32:52.890Z,97423.09
2018-05-08T13:35:19.111Z,97426.34
2018-05-08T13:37:45.350Z,97417.87
2018-05-08T13:40:11.578Z,97417.58
2018-05-08T13:42:37.827Z,97414.09
2018-05-08T13:45:04.066Z,97412.53
2018-05-08T13:47:30.316Z,97406.83
2018-05-08T13:49:56.544Z,97411.27
2018-05-08T13:52:22.769Z,97408.24
2018-05-08T13:54:49.044Z,97402.38
2018-05-08T13:57:15.271Z,97404.23
2018-05-08T13:59:41.514Z,97403.25
2018-05-08T14:02:07.744Z,97409.58
2018-05-08T14:04:34.008Z,97401.39
2018-05-08T14:07:00.270Z,97400.97
2018-05-08T14:09:26.505Z,97397.91
2018-05-08T14:11:52.722Z,97389.83
2018-05-08T14:14:18.959Z,97389.20
2018-05-08T14:16:45.206Z,97397.50
2018-05-08T14:19:11.438Z,97388.78
2018-05-08T14:21:37.682Z,97387.36
2018-05-08T14:24:03.910Z,97387.65
2018-05-08T14:26:30.150Z,97376.66
2018-05-08T14:28:56.379Z,97366.66
2018-05-08T14:31:22.629Z,97369.90
2018-05-08T14:33:48.866Z,97361.59
2018-05-08T14:36:15.087Z,97354.58
2018-05-08T14:38:41.337Z,97357.18
2018-05-08T14:41:07.557Z,97357.98
2018-05-08T14:43:33.852Z,97361.27
2018-05-08T14:46:00.061Z,97356.34
2018-05-08T14:48:26.302Z,97354.61
2018-05-08T14:50:52.514Z,97346.49
2018-05-08T14:53:18.766Z,97358.92
2018-05-08T14:55:44.988Z,97357.76
2018-05-08T14:58:11.202Z,97352.03
2018-05-08T15:00:37.478Z,97351.88
2018-05-08T15:03:03.707Z,97356.31
2018-05-08T15:05:29.948Z,97350.01
2018-05-08T15:07:56.158Z,97345.64
2018-05-08T15:10:22.398Z,97350.52
2018-05-08T15:12:48.606Z,97344.76
2018-05-08T15:15:14.863Z,97340.83
2018-05-08T15:17:41.110Z,97339.70
2018-05-08T15:20:07.330Z,97341.30
2018-05-08T15:22:33.616Z,97341.22
2018-05-08T15:24:59.819Z,97339.38
2018-05-08T15:27:26.073Z,97334.70
2018-05-08T15:29:52.301Z,97346.54
2018-05-08T15:32:18.551Z,97335.50
2018-05-08T15:34:44.831Z,97333.07
2018-05-08T15:37:11.022Z,97332.80
2018-05-08T15:39:37.230Z,97334.14
2018-05-08T15:42:03.468Z,97334.01
2018-05-08T15:44:30.344Z,97328.28
2018-05-08T15:46:56.806Z,97322.99
2018-05-08T15:49:23.054Z,97325.73
2018-05-08T15:51:49.487Z,97324.52
2018-05-08T15:54:15.783Z,97321.73
2018-05-08T15:56:42.032Z,97325.86
2018-05-08T15:59:08.290Z,97318.75
2018-05-08T16:01:34.514Z,97318.63
2018-05-08T16:04:00.750Z,97315.31
2018-05-08T16:06:27.025Z,97317.98
2018-05-08T16:08:53.259Z,97313.72
2018-05-08T16:11:19.498Z,97308.48
2018-05-08T16:13:45.711Z,97317.62
2018-05-08T16:16:11.977Z,97309.77
2018-05-08T16:18:38.442Z,97304.03
2018-05-08T16:21:04.674Z,97298.67
2018-05-08T16:23:31.021Z,97298.01
2018-05-08T16:25:58.346Z,97299.00
2018-05-08T16:28:24.605Z,97295.78
2018-05-08T16:30:50.826Z,97297.29
2018-05-08T16:33:17.078Z,97294.83
2018-05-08T16:35:43.443Z,97294.80
2018-05-08T16:38:09.681Z,97296.95
2018-05-08T16:40:35.890Z,97297.28
2018-05-08T16:43:08.990Z,97295.08
2018-05-08T16:45:35.214Z,97296.92
2018-05-08T16:48:01.478Z,97292.75
2018-05-08T16:50:27.714Z,97295.63
2018-05-08T16:52:53.938Z,97291.20
2018-05-08T16:55:20.203Z,97294.02
2018-05-08T16:57:46.518Z,97291.73
2018-05-08T17:00:13.706Z,97298.09
2018-05-08T17:02:40.039Z,97303.47
2018-05-08T17:05:06.625Z,97302.33
2018-05-08T17:07:32.891Z,97303.47
2018-05-08T17:09:59.236Z,97302.50
2018-05-08T17:12:25.470Z,97299.64
2018-05-08T17:14:51.966Z,97302.10
2018-05-08T17:17:18.202Z,97299.36
2018-05-08T17:19:44.664Z,97300.66
2018-05-08T17:22:10.927Z,97293.29
2018-05-08T17:24:37.155Z,97300.67
2018-05-08T17:27:03.404Z,97297.70
2018-05-08T17:29:29.743Z,97296.69
2018-05-08T17:31:56.022Z,97294.09
2018-05-08T17:34:22.462Z,97297.05
2018-05-08T17:36:48.882Z,97293.28
2018-05-08T17:39:15.121Z,97305.47
2018-05-08T17:41:41.535Z,97300.64
2018-05-08T17:44:07.791Z,97298.95
2018-05-08T17:46:34.051Z,97302.86
2018-05-08T17:49:00.630Z,97307.31
2018-05-08T17:51:27.008Z,97299.17
2018-05-08T17:53:53.294Z,97298.76
2018-05-08T17:56:19.594Z,97301.87
2018-05-08T17:58:45.822Z,97302.84
2018-05-08T18:01:12.171Z,97292.47
2018-05-08T18:03:38.421Z,97299.98
2018-05-08T18:06:04.738Z,97304.16
2018-05-08T18:08:30.983Z,97306.33
2018-05-08T18:10:57.251Z,97302.58
2018-05-08T18:13:23.541Z,97298.86
2018-05-08T18:15:49.814Z,97299.31
2018-05-08T18:18:16.121Z,97292.77
2018-05-08T18:20:42.374Z,97298.82
2018-05-08T18:23:08.829Z,97300.66
2018-05-08T18:25:35.097Z,97300.33
2018-05-08T18:28:01.355Z,97305.50
2018-05-08T18:30:27.634Z,97305.03
2018-05-08T18:32:53.883Z,97306.02
2018-05-08T18:35:20.107Z,97308.31
2018-05-08T18:37:46.350Z,97305.14
2018-05-08T18:40:12.591Z,97313.00
2018-05-08T18:42:38.838Z,97314.73
2018-05-08T18:45:05.079Z,97310.14
2018-05-08T18:47:31.306Z,97317.52
2018-05-08T18:49:57.570Z,97312.94
2018-05-08T18:52:23.814Z,97317.29
2018-05-08T18:54:50.089Z,97316.75
2018-05-08T18:57:16.310Z,97316.11
2018-05-08T18:59:42.562Z,97318.96
2018-05-08T19:02:08.830Z,97314.27
2018-05-08T19:04:35.180Z,97318.42
2018-05-08T19:07:01.521Z,97318.83
2018-05-08T19:09:27.731Z,97314.23
2018-05-08T19:11:53.993Z,97314.14
2018-05-08T19:14:20.226Z,97317.42
2018-05-08T19:16:46.490Z,97315.29
2018-05-08T19:19:18.834Z,97315.30
2018-05-08T19:21:45.111Z,97315.41
2018-05-08T19:24:17.457Z,97313.72
2018-05-08T19:26:43.790Z,97311.83
2018-05-08T19:29:16.194Z,97315.32
2018-05-08T19:31:42.453Z,97316.55
2018-05-08T19:34:08.719Z,97311.65
2018-05-08T19:36:41.034Z,97317.95
2018-05-08T19:39:07.519Z,97317.28
2018-05-08T19:41:33.725Z,97314.84
2018-05-08T19:44:00.053Z,97312.48
2018-05-08T19:46:26.326Z,97311.36
2018-05-08T19:48:52.638Z,97311.31
2018-05-08T19:51:18.931Z,97309.36
2018-05-08T19:53:45.236Z,97318.07
2018-05-08T19:56:11.507Z,97308.86
2018-05-08T19:58:37.723Z,97314.31
2018-05-08T20:01:04.058Z,97313.42
2018-05-08T20:03:30.398Z,97313.70
2018-05-08T20:05:56.801Z,97312.16
2018-05-08T20:08:23.179Z,97311.41
2018-05-08T20:10:49.507Z,97309.42
2018-05-08T20:13:15.713Z,97306.70
2018-05-08T20:15:41.978Z,97303.13
2018-05-08T20:18:08.270Z,97304.53
2018-05-08T20:20:34.634Z,97304.98
2018-05-08T20:23:00.927Z,97304.13
2018-05-08T20:25:27.130Z,97302.81
2018-05-08T20:27:53.414Z,97300.27
2018-05-08T20:30:19.663Z,97295.67
2018-05-08T20:32:45.976Z,97304.02
2018-05-08T20:35:12.238Z,97299.79
2018-05-08T20:37:38.491Z,97299.55
2018-05-08T20:40:04.802Z,97300.10
2018-05-08T20:42:31.068Z,97297.08
2018-05-08T20:44:57.355Z,97296.11
2018-05-08T20:47:23.680Z,97290.27
2018-05-08T20:49:49.939Z,97286.68
2018-05-08T20:52:16.354Z,97293.95
2018-05-08T20:54:42.611Z,97289.61
2018-05-08T20:57:08.907Z,97288.73
2018-05-08T20:59:35.218Z,97291.71
2018-05-08T21:02:01.534Z,97287.55
2018-05-08T21:04:27.787Z,97290.52
2018-05-08T21:06:54.057Z,97283.92
2018-05-08T21:09:20.296Z,97284.39
2018-05-08T21:11:46.569Z,97289.79
2018-05-08T21:14:12.908Z,97283.53
2018-05-08T21:16:39.170Z,97286.02
2018-05-08T21:19:05.509Z,97293.19
2018-05-08T21:21:31.799Z,97286.52
2018-05-08T21:23:58.125Z,97284.80
2018-05-08T21:26:24.362Z,97282.15
2018-05-08T21:28:56.618Z,97281.44
2018-05-08T21:31:22.946Z,97284.80
2018-05-08T21:33:49.167Z,97280.18
2018-05-08T21:36:15.462Z,97282.23
2018-05-08T21:38:41.769Z,97283.03
2018-05-08T21:41:08.065Z,97278.54
2018-05-08T21:43:34.385Z,97277.67
2018-05-08T21:46:00.729Z,97282.08
2018-05-08T21:48:26.998Z,97284.41
2018-05-08T21:50:53.379Z,97282.24
2018-05-08T21:53:19.598Z,97282.19
2018-05-08T21:55:45.971Z,97275.98
2018-05-08T21:58:12.219Z,97282.22
2018-05-08T22:00:38.496Z,97284.82
2018-05-08T22:03:04.863Z,97291.73
2018-05-08T22:05:31.230Z,97289.77
2018-05-08T22:07:57.526Z,97297.61
2018-05-08T22:10:23.865Z,97298.91
2018-05-08T22:12:50.181Z,97297.20
2018-05-08T22:15:16.418Z,97305.03
2018-05-08T22:17:42.830Z,97304.17
2018-05-08T22:20:09.252Z,97308.89
2018-05-08T22:22:35.582Z,97312.41
2018-05-08T22:25:01.862Z,97311.00
2018-05-08T22:27:28.150Z,97309.75
2018-05-08T22:29:54.544Z,97302.45
2018-05-08T22:32:20.802Z,97297.33
2018-05-08T22:34:47.410Z,97302.27
2018-05-08T22:37:14.179Z,97299.16
2018-05-08T22:39:40.419Z,97298.14
2018-05-08T22:42:06.820Z,97298.54
2018-05-08T22:44:33.305Z,97294.30
2018-05-08T22:46:59.778Z,97293.32
2018-05-08T22:49:26.116Z,97297.42
2018-05-08T22:51:52.563Z,97291.61
2018-05-08T22:54:18.951Z,97289.73
2018-05-08T22:56:45.175Z,97283.56
2018-05-08T22:59:11.410Z,97287.29
2018-05-08T23:01:37.630Z,97286.57
2018-05-08T23:04:03.866Z,97281.34
2018-05-08T23:06:30.103Z,97277.78
2018-05-08T23:08:56.378Z,97284.65
2018-05-08T23:11:22.705Z,97278.84
2018-05-08T23:13:49.270Z,97281.42
2018-05-08T23:16:15.529Z,97274.80
2018-05-08T23:18:41.749Z,97280.91
2018-05-08T23:21:08.002Z,97271.54
2018-05-08T23:23:34.430Z,97271.13
2018-05-08T23:26:00.807Z,97277.57
2018-05-08T23:28:27.114Z,97269.49
2018-05-08T23:30:53.361Z,97269.00
2018-05-08T23:33:19.617Z,97271.53
2018-05-08T23:35:45.909Z,97267.55
2018-05-08T23:38:12.454Z,97266.53
2018-05-08T23:40:38.674Z,97272.28
2018-05-08T23:43:04.922Z,97264.55
2018-05-08T23:45:31.159Z,97266.86
2018-05-08T23:47:57.438Z,97262.69
2018-05-08T23:50:23.790Z,97260.06
2018-05-08T23:52:50.194Z,97252.45
2018-05-08T23:55:16.503Z,97253.47
2018-05-08T23:57:42.769Z,97253.89
